sensor_id;sensor_type;location;lat;lon;timestamp;pressure;altitude;pressure_sealevel;temperature;humidity
73633;BME280;61927;50.080;14.418;2022-07-23T00:01:55;99369.34;;;23.66;50.14
73633;BME280;61927;50.080;14.418;2022-07-23T00:04:20;99367.91;;;23.56;50.39
73633;BME280;61927;50.080;14.418;2022-07-23T00:06:45;99366.38;;;23.53;50.69
73633;BME280;61927;50.080;14.418;2022-07-23T00:09:11;99363.16;;;23.49;50.35
73633;BME280;61927;50.080;14.418;2022-07-23T00:11:36;99368.78;;;23.48;50.63
73633;BME280;61927;50.080;14.418;2022-07-23T00:14:02;99376.59;;;23.43;51.18
73633;BME280;61927;50.080;14.418;2022-07-23T00:16:28;99377.13;;;23.38;51.60
73633;BME280;61927;50.080;14.418;2022-07-23T00:18:54;99370.75;;;23.31;51.46
73633;BME280;61927;50.080;14.418;2022-07-23T00:21:19;99361.63;;;23.24;52.16
73633;BME280;61927;50.080;14.418;2022-07-23T00:23:45;99369.09;;;23.22;52.30
73633;BME280;61927;50.080;14.418;2022-07-23T00:26:10;99366.38;;;23.22;51.61
73633;BME280;61927;50.080;14.418;2022-07-23T00:28:36;99377.41;;;23.20;51.80
73633;BME280;61927;50.080;14.418;2022-07-23T00:31:01;99371.94;;;23.29;51.41
73633;BME280;61927;50.080;14.418;2022-07-23T00:33:27;99379.03;;;23.30;51.29
73633;BME280;61927;50.080;14.418;2022-07-23T00:35:53;99368.75;;;23.25;52.10
73633;BME280;61927;50.080;14.418;2022-07-23T00:38:18;99370.28;;;23.19;51.78
73633;BME280;61927;50.080;14.418;2022-07-23T00:40:44;99356.44;;;23.14;52.18
73633;BME280;61927;50.080;14.418;2022-07-23T00:43:09;99351.56;;;23.10;52.78
73633;BME280;61927;50.080;14.418;2022-07-23T00:45:35;99352.06;;;23.13;52.28
73633;BME280;61927;50.080;14.418;2022-07-23T00:48:00;99351.03;;;23.14;52.23
73633;BME280;61927;50.080;14.418;2022-07-23T00:50:27;99348.31;;;23.14;52.12
73633;BME280;61927;50.080;14.418;2022-07-23T00:52:53;99341.06;;;23.15;52.03
73633;BME280;61927;50.080;14.418;2022-07-23T00:55:18;99347.25;;;23.24;52.09
73633;BME280;61927;50.080;14.418;2022-07-23T00:57:44;99346.59;;;23.22;52.13
73633;BME280;61927;50.080;14.418;2022-07-23T01:00:12;99345.09;;;23.19;53.03
73633;BME280;61927;50.080;14.418;2022-07-23T01:02:39;99341.28;;;23.05;53.51
73633;BME280;61927;50.080;14.418;2022-07-23T01:05:05;99346.91;;;22.96;54.16
73633;BME280;61927;50.080;14.418;2022-07-23T01:07:32;99342.50;;;22.95;54.40
73633;BME280;61927;50.080;14.418;2022-07-23T01:09:58;99339.81;;;22.95;54.81
73633;BME280;61927;50.080;14.418;2022-07-23T01:12:24;99343.88;;;22.91;55.17
73633;BME280;61927;50.080;14.418;2022-07-23T01:14:57;99337.31;;;22.85;55.19
73633;BME280;61927;50.080;14.418;2022-07-23T01:17:23;99341.03;;;22.84;55.46
73633;BME280;61927;50.080;14.418;2022-07-23T01:19:49;99338.84;;;22.79;55.84
73633;BME280;61927;50.080;14.418;2022-07-23T01:22:15;99332.25;;;22.74;55.88
73633;BME280;61927;50.080;14.418;2022-07-23T01:24:42;99327.19;;;22.71;55.71
73633;BME280;61927;50.080;14.418;2022-07-23T01:27:08;99326.53;;;22.69;55.90
73633;BME280;61927;50.080;14.418;2022-07-23T01:29:34;99314.69;;;22.70;56.05
73633;BME280;61927;50.080;14.418;2022-07-23T01:31:59;99303.56;;;22.65;55.89
73633;BME280;61927;50.080;14.418;2022-07-23T01:34:25;99303.06;;;22.61;56.67
73633;BME280;61927;50.080;14.418;2022-07-23T01:36:50;99298.16;;;22.65;56.38
73633;BME280;61927;50.080;14.418;2022-07-23T01:39:15;99302.88;;;22.63;56.32
73633;BME280;61927;50.080;14.418;2022-07-23T01:41:41;99300.91;;;22.48;57.20
73633;BME280;61927;50.080;14.418;2022-07-23T01:44:07;99303.81;;;22.39;57.21
73633;BME280;61927;50.080;14.418;2022-07-23T01:46:32;99305.34;;;22.33;58.00
73633;BME280;61927;50.080;14.418;2022-07-23T01:48:58;99295.56;;;22.32;57.76
73633;BME280;61927;50.080;14.418;2022-07-23T01:51:23;99294.22;;;22.28;57.91
73633;BME280;61927;50.080;14.418;2022-07-23T01:53:49;99291.69;;;22.27;58.05
73633;BME280;61927;50.080;14.418;2022-07-23T01:56:15;99295.25;;;22.27;57.79
73633;BME280;61927;50.080;14.418;2022-07-23T01:58:40;99301.13;;;22.31;58.00
73633;BME280;61927;50.080;14.418;2022-07-23T02:01:06;99293.69;;;22.33;58.02
73633;BME280;61927;50.080;14.418;2022-07-23T02:03:31;99289.31;;;22.32;57.92
73633;BME280;61927;50.080;14.418;2022-07-23T02:05:57;99291.00;;;22.33;57.92
73633;BME280;61927;50.080;14.418;2022-07-23T02:08:22;99286.97;;;22.29;57.74
73633;BME280;61927;50.080;14.418;2022-07-23T02:10:48;99293.38;;;22.28;57.81
73633;BME280;61927;50.080;14.418;2022-07-23T02:13:16;99295.59;;;22.24;58.23
73633;BME280;61927;50.080;14.418;2022-07-23T02:15:42;99301.84;;;22.24;58.18
73633;BME280;61927;50.080;14.418;2022-07-23T02:18:07;99293.56;;;22.18;58.13
73633;BME280;61927;50.080;14.418;2022-07-23T02:20:33;99299.16;;;22.16;58.19
73633;BME280;61927;50.080;14.418;2022-07-23T02:22:59;99301.19;;;22.14;58.21
73633;BME280;61927;50.080;14.418;2022-07-23T02:25:24;99294.75;;;22.15;57.99
73633;BME280;61927;50.080;14.418;2022-07-23T02:27:50;99292.56;;;22.19;57.74
73633;BME280;61927;50.080;14.418;2022-07-23T02:30:15;99288.34;;;22.16;58.07
73633;BME280;61927;50.080;14.418;2022-07-23T02:32:41;99288.34;;;22.08;57.87
73633;BME280;61927;50.080;14.418;2022-07-23T02:35:07;99290.72;;;22.03;58.49
73633;BME280;61927;50.080;14.418;2022-07-23T02:37:32;99291.56;;;22.04;58.40
73633;BME280;61927;50.080;14.418;2022-07-23T02:39:58;99297.66;;;22.06;58.10
73633;BME280;61927;50.080;14.418;2022-07-23T02:42:23;99290.03;;;22.01;58.17
73633;BME280;61927;50.080;14.418;2022-07-23T02:44:50;99297.81;;;21.96;58.17
73633;BME280;61927;50.080;14.418;2022-07-23T02:47:16;99294.94;;;21.98;58.47
73633;BME280;61927;50.080;14.418;2022-07-23T02:49:41;99292.75;;;21.93;58.78
73633;BME280;61927;50.080;14.418;2022-07-23T02:52:07;99302.72;;;21.92;58.72
73633;BME280;61927;50.080;14.418;2022-07-23T02:54:33;99297.47;;;21.91;58.71
73633;BME280;61927;50.080;14.418;2022-07-23T02:56:58;99292.25;;;21.89;58.75
73633;BME280;61927;50.080;14.418;2022-07-23T02:59:24;99292.91;;;21.91;59.04
73633;BME280;61927;50.080;14.418;2022-07-23T03:01:49;99291.22;;;21.90;58.63
73633;BME280;61927;50.080;14.418;2022-07-23T03:04:15;99295.63;;;21.91;58.64
73633;BME280;61927;50.080;14.418;2022-07-23T03:06:40;99295.63;;;21.91;58.63
73633;BME280;61927;50.080;14.418;2022-07-23T03:09:06;99289.53;;;21.89;58.62
73633;BME280;61927;50.080;14.418;2022-07-23T03:11:31;99294.09;;;21.89;58.91
73633;BME280;61927;50.080;14.418;2022-07-23T03:13:57;99283.78;;;21.92;58.96
73633;BME280;61927;50.080;14.418;2022-07-23T03:16:22;99282.94;;;21.92;58.67
73633;BME280;61927;50.080;14.418;2022-07-23T03:18:48;99280.91;;;21.94;58.71
73633;BME280;61927;50.080;14.418;2022-07-23T03:21:14;99279.72;;;21.97;58.83
73633;BME280;61927;50.080;14.418;2022-07-23T03:23:39;99282.28;;;21.98;58.58
73633;BME280;61927;50.080;14.418;2022-07-23T03:26:05;99274.00;;;22.00;58.55
73633;BME280;61927;50.080;14.418;2022-07-23T03:28:30;99273.00;;;21.92;58.59
73633;BME280;61927;50.080;14.418;2022-07-23T03:30:56;99258.47;;;21.85;58.89
73633;BME280;61927;50.080;14.418;2022-07-23T03:33:22;99247.69;;;21.85;59.14
73633;BME280;61927;50.080;14.418;2022-07-23T03:35:48;99239.25;;;21.80;59.37
73633;BME280;61927;50.080;14.418;2022-07-23T03:38:14;99239.94;;;21.74;59.55
73633;BME280;61927;50.080;14.418;2022-07-23T03:40:40;99235.38;;;21.75;59.54
73633;BME280;61927;50.080;14.418;2022-07-23T03:43:05;99248.38;;;21.79;59.54
73633;BME280;61927;50.080;14.418;2022-07-23T03:45:31;99253.75;;;21.79;59.63
73633;BME280;61927;50.080;14.418;2022-07-23T03:47:57;99258.84;;;21.74;59.80
73633;BME280;61927;50.080;14.418;2022-07-23T03:50:23;99258.16;;;21.72;59.76
73633;BME280;61927;50.080;14.418;2022-07-23T03:52:49;99268.97;;;21.72;59.61
73633;BME280;61927;50.080;14.418;2022-07-23T03:55:14;99274.53;;;21.71;60.01
73633;BME280;61927;50.080;14.418;2022-07-23T03:57:40;99279.94;;;21.71;59.80
73633;BME280;61927;50.080;14.418;2022-07-23T04:00:07;99278.06;;;21.71;59.86
73633;BME280;61927;50.080;14.418;2022-07-23T04:02:35;99279.09;;;21.78;59.52
73633;BME280;61927;50.080;14.418;2022-07-23T04:05:01;99289.72;;;21.80;59.06
73633;BME280;61927;50.080;14.418;2022-07-23T04:07:26;99300.69;;;21.78;59.20
73633;BME280;61927;50.080;14.418;2022-07-23T04:09:52;99318.59;;;21.79;59.14
73633;BME280;61927;50.080;14.418;2022-07-23T04:12:17;99310.16;;;21.82;59.19
73633;BME280;61927;50.080;14.418;2022-07-23T04:14:43;99305.91;;;21.88;58.37
73633;BME280;61927;50.080;14.418;2022-07-23T04:17:09;99287.53;;;21.83;58.35
73633;BME280;61927;50.080;14.418;2022-07-23T04:19:35;99288.38;;;21.84;58.55
73633;BME280;61927;50.080;14.418;2022-07-23T04:22:06;99267.78;;;21.83;58.23
73633;BME280;61927;50.080;14.418;2022-07-23T04:24:32;99278.41;;;21.92;58.38
73633;BME280;61927;50.080;14.418;2022-07-23T04:26:57;99275.34;;;21.96;58.42
73633;BME280;61927;50.080;14.418;2022-07-23T04:29:24;99260.50;;;21.91;58.60
73633;BME280;61927;50.080;14.418;2022-07-23T04:31:49;99252.38;;;21.91;58.05
73633;BME280;61927;50.080;14.418;2022-07-23T04:34:15;99238.19;;;21.98;58.20
73633;BME280;61927;50.080;14.418;2022-07-23T04:36:41;99238.22;;;22.06;57.77
73633;BME280;61927;50.080;14.418;2022-07-23T04:39:06;99235.81;;;22.11;57.22
73633;BME280;61927;50.080;14.418;2022-07-23T04:41:32;99246.47;;;22.12;57.27
73633;BME280;61927;50.080;14.418;2022-07-23T04:44:00;99247.63;;;22.18;57.51
73633;BME280;61927;50.080;14.418;2022-07-23T04:46:25;99242.19;;;22.26;57.43
73633;BME280;61927;50.080;14.418;2022-07-23T04:48:51;99241.38;;;22.17;57.58
73633;BME280;61927;50.080;14.418;2022-07-23T04:51:17;99241.22;;;22.11;57.63
73633;BME280;61927;50.080;14.418;2022-07-23T04:53:42;99244.78;;;22.11;57.73
73633;BME280;61927;50.080;14.418;2022-07-23T04:56:08;99242.06;;;22.11;57.43
73633;BME280;61927;50.080;14.418;2022-07-23T04:58:33;99252.38;;;22.16;57.13
73633;BME280;61927;50.080;14.418;2022-07-23T05:00:59;99270.44;;;22.15;57.40
73633;BME280;61927;50.080;14.418;2022-07-23T05:03:24;99264.72;;;22.10;57.73
73633;BME280;61927;50.080;14.418;2022-07-23T05:05:50;99262.84;;;22.11;57.69
73633;BME280;61927;50.080;14.418;2022-07-23T05:08:16;99270.97;;;22.03;58.40
73633;BME280;61927;50.080;14.418;2022-07-23T05:10:42;99275.69;;;21.92;58.73
73633;BME280;61927;50.080;14.418;2022-07-23T05:13:07;99277.22;;;21.87;58.90
73633;BME280;61927;50.080;14.418;2022-07-23T05:15:34;99288.72;;;21.81;59.05
73633;BME280;61927;50.080;14.418;2022-07-23T05:17:59;99312.19;;;21.72;60.97
73633;BME280;61927;50.080;14.418;2022-07-23T05:20:25;99325.69;;;21.64;62.00
73633;BME280;61927;50.080;14.418;2022-07-23T05:22:51;99331.06;;;21.56;61.68
73633;BME280;61927;50.080;14.418;2022-07-23T05:25:16;99359.06;;;21.39;62.60
73633;BME280;61927;50.080;14.418;2022-07-23T05:27:42;99335.41;;;21.24;62.51
73633;BME280;61927;50.080;14.418;2022-07-23T05:30:08;99319.69;;;21.20;63.31
73633;BME280;61927;50.080;14.418;2022-07-23T05:32:33;99336.72;;;21.20;63.23
73633;BME280;61927;50.080;14.418;2022-07-23T05:34:59;99341.63;;;21.17;63.05
73633;BME280;61927;50.080;14.418;2022-07-23T05:37:24;99330.63;;;21.10;63.38
73633;BME280;61927;50.080;14.418;2022-07-23T05:39:50;99319.00;;;21.10;63.33
73633;BME280;61927;50.080;14.418;2022-07-23T05:42:16;99330.63;;;21.10;63.13
73633;BME280;61927;50.080;14.418;2022-07-23T05:44:42;99307.19;;;21.11;63.44
73633;BME280;61927;50.080;14.418;2022-07-23T05:47:07;99303.16;;;21.15;63.24
73633;BME280;61927;50.080;14.418;2022-07-23T05:49:33;99303.19;;;21.23;62.73
73633;BME280;61927;50.080;14.418;2022-07-23T05:51:58;99294.59;;;21.27;62.82
73633;BME280;61927;50.080;14.418;2022-07-23T05:54:24;99313.69;;;21.34;62.22
73633;BME280;61927;50.080;14.418;2022-07-23T05:56:50;99315.53;;;21.42;63.29
73633;BME280;61927;50.080;14.418;2022-07-23T05:59:15;99320.44;;;21.54;64.27
73633;BME280;61927;50.080;14.418;2022-07-23T06:01:41;99309.66;;;21.54;63.80
73633;BME280;61927;50.080;14.418;2022-07-23T06:04:07;99288.22;;;21.61;63.36
73633;BME280;61927;50.080;14.418;2022-07-23T06:06:33;99267.44;;;21.62;63.18
73633;BME280;61927;50.080;14.418;2022-07-23T06:08:58;99260.19;;;21.62;63.55
73633;BME280;61927;50.080;14.418;2022-07-23T06:11:24;99298.50;;;21.66;65.10
73633;BME280;61927;50.080;14.418;2022-07-23T06:13:49;99344.91;;;21.69;64.95
73633;BME280;61927;50.080;14.418;2022-07-23T06:16:15;99353.03;;;21.69;64.56
73633;BME280;61927;50.080;14.418;2022-07-23T06:18:41;99347.63;;;21.61;65.36
73633;BME280;61927;50.080;14.418;2022-07-23T06:21:06;99347.09;;;21.57;65.27
73633;BME280;61927;50.080;14.418;2022-07-23T06:23:32;99343.72;;;21.55;65.08
73633;BME280;61927;50.080;14.418;2022-07-23T06:25:57;99352.34;;;21.59;65.29
73633;BME280;61927;50.080;14.418;2022-07-23T06:28:23;99345.75;;;21.62;64.71
73633;BME280;61927;50.080;14.418;2022-07-23T06:30:48;99329.41;;;21.71;65.68
73633;BME280;61927;50.080;14.418;2022-07-23T06:33:14;99320.44;;;21.79;65.49
73633;BME280;61927;50.080;14.418;2022-07-23T06:35:39;99320.63;;;21.77;65.13
73633;BME280;61927;50.080;14.418;2022-07-23T06:38:05;99331.75;;;21.82;65.23
73633;BME280;61927;50.080;14.418;2022-07-23T06:40:31;99329.38;;;21.87;64.39
73633;BME280;61927;50.080;14.418;2022-07-23T06:42:56;99311.81;;;21.91;64.44
73633;BME280;61927;50.080;14.418;2022-07-23T06:45:21;99308.63;;;21.96;65.48
73633;BME280;61927;50.080;14.418;2022-07-23T06:47:47;99303.53;;;22.01;65.19
73633;BME280;61927;50.080;14.418;2022-07-23T06:50:13;99303.91;;;22.06;64.88
73633;BME280;61927;50.080;14.418;2022-07-23T06:52:38;99306.59;;;22.06;64.71
73633;BME280;61927;50.080;14.418;2022-07-23T06:55:04;99308.78;;;22.11;64.12
73633;BME280;61927;50.080;14.418;2022-07-23T06:57:30;99310.81;;;22.09;63.27
73633;BME280;61927;50.080;14.418;2022-07-23T06:59:55;99307.44;;;22.15;63.99
73633;BME280;61927;50.080;14.418;2022-07-23T07:02:24;99312.81;;;22.23;64.41
73633;BME280;61927;50.080;14.418;2022-07-23T07:04:49;99315.34;;;22.24;64.21
73633;BME280;61927;50.080;14.418;2022-07-23T07:07:15;99308.75;;;22.27;64.62
73633;BME280;61927;50.080;14.418;2022-07-23T07:09:41;99318.69;;;22.35;64.73
73633;BME280;61927;50.080;14.418;2022-07-23T07:12:06;99314.63;;;22.39;64.60
73633;BME280;61927;50.080;14.418;2022-07-23T07:14:32;99324.94;;;22.35;63.86
73633;BME280;61927;50.080;14.418;2022-07-23T07:16:58;99330.84;;;22.39;64.21
73633;BME280;61927;50.080;14.418;2022-07-23T07:19:23;99330.69;;;22.40;64.20
73633;BME280;61927;50.080;14.418;2022-07-23T07:21:48;99344.69;;;22.44;63.17
73633;BME280;61927;50.080;14.418;2022-07-23T07:24:14;99341.66;;;22.39;63.34
73633;BME280;61927;50.080;14.418;2022-07-23T07:26:40;99352.19;;;22.26;63.30
73633;BME280;61927;50.080;14.418;2022-07-23T07:29:05;99352.19;;;22.17;63.55
73633;BME280;61927;50.080;14.418;2022-07-23T07:31:31;99352.19;;;22.17;63.90
73633;BME280;61927;50.080;14.418;2022-07-23T07:33:58;99349.16;;;22.20;63.44
73633;BME280;61927;50.080;14.418;2022-07-23T07:36:23;99353.34;;;22.31;63.04
73633;BME280;61927;50.080;14.418;2022-07-23T07:38:49;99345.22;;;22.39;63.56
73633;BME280;61927;50.080;14.418;2022-07-23T07:41:15;99342.66;;;22.46;63.03
73633;BME280;61927;50.080;14.418;2022-07-23T07:43:41;99347.19;;;22.62;62.23
73633;BME280;61927;50.080;14.418;2022-07-23T07:46:06;99347.81;;;22.80;61.63
73633;BME280;61927;50.080;14.418;2022-07-23T07:48:36;99344.69;;;22.99;61.16
73633;BME280;61927;50.080;14.418;2022-07-23T07:51:03;99345.25;;;23.17;61.03
73633;BME280;61927;50.080;14.418;2022-07-23T07:53:29;99351.16;;;23.21;60.34
73633;BME280;61927;50.080;14.418;2022-07-23T07:55:54;99346.41;;;23.23;60.81
73633;BME280;61927;50.080;14.418;2022-07-23T07:58:20;99350.44;;;23.27;60.23
73633;BME280;61927;50.080;14.418;2022-07-23T08:00:46;99365.44;;;23.38;59.83
73633;BME280;61927;50.080;14.418;2022-07-23T08:03:11;99357.91;;;23.56;59.44
73633;BME280;61927;50.080;14.418;2022-07-23T08:05:37;99356.28;;;23.70;59.09
73633;BME280;61927;50.080;14.418;2022-07-23T08:08:02;99349.41;;;23.82;59.19
73633;BME280;61927;50.080;14.418;2022-07-23T08:10:29;99352.06;;;23.90;58.61
73633;BME280;61927;50.080;14.418;2022-07-23T08:12:57;99359.22;;;23.83;58.78
73633;BME280;61927;50.080;14.418;2022-07-23T08:15:26;99353.22;;;23.73;58.85
73633;BME280;61927;50.080;14.418;2022-07-23T08:17:52;99357.19;;;23.62;58.19
73633;BME280;61927;50.080;14.418;2022-07-23T08:20:20;99355.81;;;23.66;58.40
73633;BME280;61927;50.080;14.418;2022-07-23T08:22:54;99351.16;;;23.75;58.60
73633;BME280;61927;50.080;14.418;2022-07-23T08:27:48;99343.22;;;24.11;57.88
73633;BME280;61927;50.080;14.418;2022-07-23T08:30:14;99353.31;;;24.40;56.87
73633;BME280;61927;50.080;14.418;2022-07-23T08:32:56;99354.25;;;24.62;55.78
73633;BME280;61927;50.080;14.418;2022-07-23T08:35:29;99353.59;;;24.74;55.72
73633;BME280;61927;50.080;14.418;2022-07-23T08:37:56;99353.59;;;24.89;55.53
73633;BME280;61927;50.080;14.418;2022-07-23T08:40:23;99355.28;;;25.05;54.98
73633;BME280;61927;50.080;14.418;2022-07-23T08:42:50;99356.47;;;25.17;54.53
73633;BME280;61927;50.080;14.418;2022-07-23T08:45:18;99351.13;;;25.24;54.39
73633;BME280;61927;50.080;14.418;2022-07-23T08:47:48;99349.25;;;25.24;54.52
73633;BME280;61927;50.080;14.418;2022-07-23T08:50:14;99353.06;;;25.30;54.39
73633;BME280;61927;50.080;14.418;2022-07-23T08:52:40;99354.19;;;25.35;54.42
73633;BME280;61927;50.080;14.418;2022-07-23T08:55:07;99357.41;;;25.46;54.26
73633;BME280;61927;50.080;14.418;2022-07-23T08:57:33;99344.56;;;25.54;53.35
73633;BME280;61927;50.080;14.418;2022-07-23T08:59:58;99350.25;;;25.59;53.26
73633;BME280;61927;50.080;14.418;2022-07-23T09:02:24;99340.66;;;25.63;51.64
73633;BME280;61927;50.080;14.418;2022-07-23T09:04:49;99345.75;;;25.66;49.97
73633;BME280;61927;50.080;14.418;2022-07-23T09:07:15;99341.88;;;25.75;49.20
73633;BME280;61927;50.080;14.418;2022-07-23T09:09:40;99334.88;;;25.88;48.73
73633;BME280;61927;50.080;14.418;2022-07-23T09:12:08;99341.91;;;26.03;46.42
73633;BME280;61927;50.080;14.418;2022-07-23T09:14:45;99345.31;;;26.12;46.07
73633;BME280;61927;50.080;14.418;2022-07-23T09:17:17;99343.97;;;26.29;45.59
73633;BME280;61927;50.080;14.418;2022-07-23T09:19:44;99338.50;;;26.51;45.23
73633;BME280;61927;50.080;14.418;2022-07-23T09:22:24;99338.03;;;26.75;44.67
73633;BME280;61927;50.080;14.418;2022-07-23T09:25:12;99333.47;;;26.89;43.98
73633;BME280;61927;50.080;14.418;2022-07-23T09:27:53;99332.03;;;26.93;44.17
73633;BME280;61927;50.080;14.418;2022-07-23T09:30:24;99329.59;;;27.05;44.61
73633;BME280;61927;50.080;14.418;2022-07-23T09:33:12;99326.25;;;27.09;44.65
73633;BME280;61927;50.080;14.418;2022-07-23T09:35:53;99328.34;;;27.07;44.37
73633;BME280;61927;50.080;14.418;2022-07-23T09:38:21;99331.09;;;27.14;43.86
73633;BME280;61927;50.080;14.418;2022-07-23T09:41:08;99330.06;;;27.21;43.89
73633;BME280;61927;50.080;14.418;2022-07-23T09:43:34;99330.69;;;27.17;42.08
73633;BME280;61927;50.080;14.418;2022-07-23T09:46:26;99334.25;;;27.17;43.24
73633;BME280;61927;50.080;14.418;2022-07-23T09:48:52;99336.09;;;27.03;42.93
73633;BME280;61927;50.080;14.418;2022-07-23T09:51:19;99334.34;;;26.96;43.36
73633;BME280;61927;50.080;14.418;2022-07-23T09:53:48;99338.50;;;26.85;43.33
73633;BME280;61927;50.080;14.418;2022-07-23T09:56:14;99342.81;;;26.73;43.82
73633;BME280;61927;50.080;14.418;2022-07-23T09:58:41;99341.09;;;26.65;44.22
73633;BME280;61927;50.080;14.418;2022-07-23T10:01:31;99338.34;;;26.59;44.43
73633;BME280;61927;50.080;14.418;2022-07-23T10:03:58;99336.22;;;26.54;45.32
73633;BME280;61927;50.080;14.418;2022-07-23T10:06:24;99334.53;;;26.53;45.80
73633;BME280;61927;50.080;14.418;2022-07-23T10:08:50;99340.19;;;26.52;45.27
73633;BME280;61927;50.080;14.418;2022-07-23T10:11:17;99330.53;;;26.49;45.17
73633;BME280;61927;50.080;14.418;2022-07-23T10:13:43;99333.72;;;26.53;45.80
73633;BME280;61927;50.080;14.418;2022-07-23T10:16:21;99328.09;;;26.61;45.46
73633;BME280;61927;50.080;14.418;2022-07-23T10:18:48;99326.47;;;26.66;45.16
73633;BME280;61927;50.080;14.418;2022-07-23T10:21:21;99309.72;;;26.69;44.68
73633;BME280;61927;50.080;14.418;2022-07-23T10:24:01;99314.75;;;26.73;44.82
73633;BME280;61927;50.080;14.418;2022-07-23T10:29:55;99319.22;;;26.87;44.06
73633;BME280;61927;50.080;14.418;2022-07-23T10:37:51;99310.19;;;27.27;43.24
73633;BME280;61927;50.080;14.418;2022-07-23T10:40:21;99302.88;;;27.41;43.12
73633;BME280;61927;50.080;14.418;2022-07-23T10:42:49;99309.41;;;27.53;42.48
73633;BME280;61927;50.080;14.418;2022-07-23T10:45:36;99308.41;;;27.81;41.27
73633;BME280;61927;50.080;14.418;2022-07-23T10:48:14;99305.06;;;27.92;41.50
73633;BME280;61927;50.080;14.418;2022-07-23T10:50:41;99306.50;;;28.08;39.94
73633;BME280;61927;50.080;14.418;2022-07-23T10:53:17;99316.56;;;28.20;40.42
73633;BME280;61927;50.080;14.418;2022-07-23T10:55:46;99310.31;;;28.26;39.25
73633;BME280;61927;50.080;14.418;2022-07-23T10:58:17;99307.78;;;28.32;39.86
73633;BME280;61927;50.080;14.418;2022-07-23T11:00:43;99286.56;;;28.34;39.46
73633;BME280;61927;50.080;14.418;2022-07-23T11:03:31;99288.00;;;28.43;39.13
73633;BME280;61927;50.080;14.418;2022-07-23T11:06:02;99292.63;;;28.42;39.75
73633;BME280;61927;50.080;14.418;2022-07-23T11:08:27;99286.34;;;28.42;39.85
73633;BME280;61927;50.080;14.418;2022-07-23T11:13:28;99281.91;;;28.47;39.46
73633;BME280;61927;50.080;14.418;2022-07-23T11:16:03;99269.06;;;28.61;39.73
73633;BME280;61927;50.080;14.418;2022-07-23T11:26:56;99254.09;;;29.21;38.24
73633;BME280;61927;50.080;14.418;2022-07-23T11:37:05;99247.41;;;29.99;36.82
73633;BME280;61927;50.080;14.418;2022-07-23T11:39:32;99250.97;;;29.99;36.72
73633;BME280;61927;50.080;14.418;2022-07-23T11:41:59;99305.66;;;29.81;36.75
73633;BME280;61927;50.080;14.418;2022-07-23T11:49:21;99299.22;;;25.76;39.23
73633;BME280;61927;50.080;14.418;2022-07-23T11:52:05;99311.75;;;25.56;38.51
73633;BME280;61927;50.080;14.418;2022-07-23T11:54:31;99311.50;;;25.51;38.49
73633;BME280;61927;50.080;14.418;2022-07-23T11:56:59;99325.78;;;25.38;39.16
73633;BME280;61927;50.080;14.418;2022-07-23T11:59:27;99324.16;;;25.22;40.01
73633;BME280;61927;50.080;14.418;2022-07-23T12:02:02;99325.13;;;24.85;40.96
73633;BME280;61927;50.080;14.418;2022-07-23T12:04:45;99360.25;;;24.57;43.75
73633;BME280;61927;50.080;14.418;2022-07-23T12:09:50;99362.56;;;24.31;50.02
73633;BME280;61927;50.080;14.418;2022-07-23T12:12:15;99339.34;;;23.91;52.98
73633;BME280;61927;50.080;14.418;2022-07-23T12:14:53;99325.53;;;24.00;54.78
73633;BME280;61927;50.080;14.418;2022-07-23T12:17:19;99324.41;;;24.32;55.22
73633;BME280;61927;50.080;14.418;2022-07-23T12:19:46;99336.09;;;24.62;54.20
73633;BME280;61927;50.080;14.418;2022-07-23T12:22:11;99336.47;;;24.89;52.45
73633;BME280;61927;50.080;14.418;2022-07-23T12:25:16;99336.47;;;25.03;51.98
73633;BME280;61927;50.080;14.418;2022-07-23T12:27:44;99336.53;;;24.95;50.78
73633;BME280;61927;50.080;14.418;2022-07-23T12:32:44;99344.59;;;24.89;52.34
73633;BME280;61927;50.080;14.418;2022-07-23T12:35:10;99348.34;;;24.88;51.87
73633;BME280;61927;50.080;14.418;2022-07-23T12:37:38;99341.59;;;24.84;52.01
73633;BME280;61927;50.080;14.418;2022-07-23T12:42:55;99336.53;;;24.95;53.23
73633;BME280;61927;50.080;14.418;2022-07-23T12:45:21;99334.94;;;25.16;52.54
73633;BME280;61927;50.080;14.418;2022-07-23T12:48:02;99341.56;;;25.28;52.00
73633;BME280;61927;50.080;14.418;2022-07-23T12:53:09;99371.97;;;25.74;52.11
73633;BME280;61927;50.080;14.418;2022-07-23T12:55:37;99383.59;;;25.68;52.61
73633;BME280;61927;50.080;14.418;2022-07-23T12:58:09;99379.16;;;25.46;53.57
73633;BME280;61927;50.080;14.418;2022-07-23T13:00:59;99392.19;;;25.35;51.13
73633;BME280;61927;50.080;14.418;2022-07-23T13:03:40;99390.03;;;25.46;51.11
73633;BME280;61927;50.080;14.418;2022-07-23T13:06:10;99383.59;;;25.68;49.82
73633;BME280;61927;50.080;14.418;2022-07-23T13:08:38;99389.03;;;25.68;48.71
73633;BME280;61927;50.080;14.418;2022-07-23T13:11:06;99386.13;;;25.91;48.35
73633;BME280;61927;50.080;14.418;2022-07-23T13:13:33;99375.22;;;26.12;48.41
73633;BME280;61927;50.080;14.418;2022-07-23T13:15:59;99379.09;;;26.24;47.39
73633;BME280;61927;50.080;14.418;2022-07-23T13:18:27;99366.34;;;26.25;46.25
73633;BME280;61927;50.080;14.418;2022-07-23T13:20:53;99358.31;;;26.38;46.66
73633;BME280;61927;50.080;14.418;2022-07-23T13:23:20;99345.66;;;26.58;45.95
73633;BME280;61927;50.080;14.418;2022-07-23T13:25:46;99347.19;;;26.67;44.08
73633;BME280;61927;50.080;14.418;2022-07-23T13:28:12;99348.47;;;26.71;44.78
73633;BME280;61927;50.080;14.418;2022-07-23T13:30:39;99340.16;;;26.86;44.26
73633;BME280;61927;50.080;14.418;2022-07-23T13:33:05;99343.91;;;26.79;44.57
73633;BME280;61927;50.080;14.418;2022-07-23T13:35:31;99330.97;;;26.87;45.08
73633;BME280;61927;50.080;14.418;2022-07-23T13:37:57;99326.03;;;27.04;44.98